Time;durP1;ratioP1;P1;durP2;ratioP2;P2;SDS_P1;SDS_P2;PMS_P1;PMS_P2;Temp;Humidity;BMP_temperature;BMP_pressure;BME280_temperature;BME280_humidity;BME280_pressure;Samples;Min_cycle;Max_cycle;Signal;HPM_P1;HPM_P2
2022/10/13 00:01:35;;;;;;;6.83;6.10;;;;;;;;;;4966766;28;20196;-54
2022/10/13 00:04:01;;;;;;;5.70;5.17;;;;;;;;;;4964568;28;20218;-54
2022/10/13 00:06:27;;;;;;;6.70;5.40;;;;;;;;;;4968624;28;20176;-55
2022/10/13 00:08:55;;;;;;;5.13;4.63;;;;;;;;;;4957570;28;20187;-54
2022/10/13 00:11:23;;;;;;;5.73;5.20;;;;;;;;;;4968728;28;20646;-54
2022/10/13 00:13:49;;;;;;;4.83;4.33;;;;;;;;;;4967807;28;20619;-54
2022/10/13 00:16:17;;;;;;;5.90;4.97;;;;;;;;;;4968734;28;20259;-55
2022/10/13 00:18:43;;;;;;;5.70;5.10;;;;;;;;;;4949798;28;20210;-54
2022/10/13 00:21:12;;;;;;;5.87;4.80;;;;;;;;;;4966498;28;20187;-54
2022/10/13 00:23:38;;;;;;;7.23;5.63;;;;;;;;;;4966185;28;20223;-54
2022/10/13 00:26:06;;;;;;;6.23;5.73;;;;;;;;;;4959396;28;20254;-54
2022/10/13 00:28:32;;;;;;;5.77;4.93;;;;;;;;;;4967814;28;20493;-52
2022/10/13 00:30:58;;;;;;;6.03;5.27;;;;;;;;;;4968229;28;20246;-53
2022/10/13 00:33:25;;;;;;;6.00;5.10;;;;;;;;;;4952672;28;20290;-53
2022/10/13 00:35:51;;;;;;;6.13;5.53;;;;;;;;;;4965511;28;20191;-54
2022/10/13 00:38:18;;;;;;;5.83;5.20;;;;;;;;;;4967343;28;20196;-53
2022/10/13 00:40:47;;;;;;;5.83;5.03;;;;;;;;;;4953802;28;20188;-54
2022/10/13 00:43:18;;;;;;;7.07;5.30;;;;;;;;;;4967563;28;20641;-55
2022/10/13 00:45:44;;;;;;;5.87;5.23;;;;;;;;;;4966712;28;20211;-54
2022/10/13 00:48:11;;;;;;;5.80;5.30;;;;;;;;;;4963476;28;20283;-53
2022/10/13 00:50:39;;;;;;;5.83;5.23;;;;;;;;;;4964838;28;20251;-54
2022/10/13 00:53:06;;;;;;;5.87;5.20;;;;;;;;;;4968381;28;20650;-53
2022/10/13 00:55:34;;;;;;;5.93;5.40;;;;;;;;;;4967808;28;20198;-53
2022/10/13 00:58:02;;;;;;;7.33;5.47;;;;;;;;;;4973281;28;20230;-53
2022/10/13 01:00:29;;;;;;;7.63;5.17;;;;;;;;;;4969956;28;20183;-53
2022/10/13 01:02:55;;;;;;;6.43;4.70;;;;;;;;;;4993065;28;20506;-54
2022/10/13 01:05:21;;;;;;;6.47;5.07;;;;;;;;;;4986907;28;20198;-53
2022/10/13 01:07:51;;;;;;;6.53;5.07;;;;;;;;;;5003763;28;20459;-53
2022/10/13 01:10:25;;;;;;;5.83;5.10;;;;;;;;;;4989224;28;20709;-53
2022/10/13 01:13:05;;;;;;;10.13;5.33;;;;;;;;;;5003018;28;20174;-53
2022/10/13 01:15:36;;;;;;;6.03;5.10;;;;;;;;;;4990454;28;20238;-54
2022/10/13 01:18:14;;;;;;;6.27;5.30;;;;;;;;;;4989949;28;20265;-52
2022/10/13 01:20:52;;;;;;;5.73;5.20;;;;;;;;;;4968432;28;20286;-54
2022/10/13 01:23:37;;;;;;;5.80;5.27;;;;;;;;;;4987349;28;20225;-53
2022/10/13 01:26:03;;;;;;;5.33;4.83;;;;;;;;;;4988725;28;20250;-54
2022/10/13 01:28:41;;;;;;;5.80;4.80;;;;;;;;;;4999482;28;20187;-53
2022/10/13 01:31:20;;;;;;;5.47;4.50;;;;;;;;;;4988326;28;20191;-54
2022/10/13 01:33:48;;;;;;;8.33;5.10;;;;;;;;;;4986751;28;20191;-55
2022/10/13 01:36:18;;;;;;;6.53;5.17;;;;;;;;;;4988089;28;20195;-54
2022/10/13 01:39:02;;;;;;;5.57;4.93;;;;;;;;;;4981385;28;20230;-54
2022/10/13 01:41:33;;;;;;;6.57;5.70;;;;;;;;;;4984295;28;20593;-54
2022/10/13 01:44:11;;;;;;;6.17;4.83;;;;;;;;;;5006309;28;20202;-54
2022/10/13 01:46:38;;;;;;;6.40;5.80;;;;;;;;;;4997182;28;20268;-54
2022/10/13 01:49:06;;;;;;;5.73;4.87;;;;;;;;;;5004454;28;20593;-54
2022/10/13 01:51:33;;;;;;;5.70;5.10;;;;;;;;;;4988867;28;20199;-53
2022/10/13 01:53:59;;;;;;;7.10;5.50;;;;;;;;;;4964995;28;20717;-55
2022/10/13 01:56:25;;;;;;;6.23;5.63;;;;;;;;;;4994335;28;20191;-54
2022/10/13 01:58:52;;;;;;;6.40;5.10;;;;;;;;;;5004544;28;20735;-54
2022/10/13 02:01:18;;;;;;;6.23;5.53;;;;;;;;;;4991499;28;20749;-53
2022/10/13 02:03:50;;;;;;;6.03;5.27;;;;;;;;;;4988613;28;20241;-54
2022/10/13 02:06:30;;;;;;;6.83;5.23;;;;;;;;;;4976696;28;20603;-54
2022/10/13 02:09:04;;;;;;;5.90;5.20;;;;;;;;;;4991027;28;20628;-53
2022/10/13 02:11:31;;;;;;;5.60;5.10;;;;;;;;;;4979814;28;20422;-54
2022/10/13 02:13:57;;;;;;;6.30;5.47;;;;;;;;;;4989963;28;20692;-54
2022/10/13 02:16:24;;;;;;;7.00;5.43;;;;;;;;;;4989509;28;20679;-53
2022/10/13 02:18:50;;;;;;;6.17;5.00;;;;;;;;;;4989589;28;20745;-53
2022/10/13 02:21:17;;;;;;;7.70;5.27;;;;;;;;;;4987921;28;20194;-54
2022/10/13 02:23:44;;;;;;;5.90;4.93;;;;;;;;;;4990260;28;20203;-54
2022/10/13 02:26:10;;;;;;;6.93;5.20;;;;;;;;;;4992270;28;20258;-54
2022/10/13 02:28:37;;;;;;;5.70;4.63;;;;;;;;;;4998737;28;20627;-54
2022/10/13 02:31:05;;;;;;;6.23;5.47;;;;;;;;;;4989841;28;20191;-54
2022/10/13 02:33:32;;;;;;;6.20;5.37;;;;;;;;;;4989018;28;20164;-53
2022/10/13 02:35:58;;;;;;;6.77;5.67;;;;;;;;;;4987484;28;20637;-55
2022/10/13 02:38:24;;;;;;;6.33;5.13;;;;;;;;;;4978935;28;20325;-54
2022/10/13 02:40:50;;;;;;;6.87;5.73;;;;;;;;;;4985144;28;20198;-54
2022/10/13 02:43:17;;;;;;;7.70;5.83;;;;;;;;;;5002057;28;20172;-55
2022/10/13 02:45:43;;;;;;;6.37;5.17;;;;;;;;;;4989475;28;20179;-55
2022/10/13 02:48:09;;;;;;;5.80;5.20;;;;;;;;;;5007052;28;20178;-54
2022/10/13 02:50:35;;;;;;;7.67;5.27;;;;;;;;;;4993129;28;20210;-55
2022/10/13 02:53:01;;;;;;;6.80;5.90;;;;;;;;;;4991030;28;20191;-54
2022/10/13 02:55:27;;;;;;;6.43;5.83;;;;;;;;;;4972366;28;20187;-55
2022/10/13 02:57:53;;;;;;;5.77;5.17;;;;;;;;;;5000686;28;20187;-55
2022/10/13 03:00:19;;;;;;;6.27;5.60;;;;;;;;;;4989767;28;20183;-54
2022/10/13 03:02:45;;;;;;;6.40;5.80;;;;;;;;;;4994617;28;20249;-55
2022/10/13 03:05:11;;;;;;;6.57;5.63;;;;;;;;;;4970922;28;20218;-54
2022/10/13 03:07:37;;;;;;;7.90;5.80;;;;;;;;;;5003540;28;20166;-55
2022/10/13 03:10:04;;;;;;;7.37;5.53;;;;;;;;;;4995857;28;20210;-54
2022/10/13 03:12:30;;;;;;;6.53;5.87;;;;;;;;;;5000631;28;20258;-55
2022/10/13 03:14:56;;;;;;;7.00;6.03;;;;;;;;;;4990125;28;20190;-55
2022/10/13 03:17:22;;;;;;;6.80;6.10;;;;;;;;;;5001109;28;20179;-53
2022/10/13 03:19:48;;;;;;;7.53;5.70;;;;;;;;;;4996849;28;20266;-54
2022/10/13 03:22:15;;;;;;;6.63;5.73;;;;;;;;;;4999564;28;20201;-54
2022/10/13 03:24:41;;;;;;;5.73;5.23;;;;;;;;;;4989276;28;20692;-53
2022/10/13 03:27:07;;;;;;;6.03;5.47;;;;;;;;;;4991183;28;20194;-54
2022/10/13 03:29:33;;;;;;;7.87;5.80;;;;;;;;;;4988333;28;20262;-54
2022/10/13 03:31:59;;;;;;;6.87;6.17;;;;;;;;;;4997586;28;20606;-55
2022/10/13 03:34:25;;;;;;;6.43;5.70;;;;;;;;;;4998273;28;20518;-54
2022/10/13 03:36:51;;;;;;;6.97;5.93;;;;;;;;;;4996130;28;20588;-54
2022/10/13 03:39:17;;;;;;;10.10;6.23;;;;;;;;;;4990412;28;20642;-54
2022/10/13 03:41:44;;;;;;;6.23;5.60;;;;;;;;;;4995232;28;20241;-54
2022/10/13 03:44:12;;;;;;;6.50;5.70;;;;;;;;;;4979345;28;20325;-54
2022/10/13 03:46:38;;;;;;;6.47;5.77;;;;;;;;;;4992010;28;20186;-54
2022/10/13 03:49:04;;;;;;;6.73;5.47;;;;;;;;;;4988145;28;20190;-54
2022/10/13 03:51:30;;;;;;;7.53;6.40;;;;;;;;;;4992788;28;20221;-53
2022/10/13 03:53:57;;;;;;;6.17;5.37;;;;;;;;;;4973351;28;20613;-54
2022/10/13 03:56:25;;;;;;;6.57;5.97;;;;;;;;;;4990530;28;20194;-54
2022/10/13 03:58:53;;;;;;;9.90;6.00;;;;;;;;;;5002051;28;20258;-54
2022/10/13 04:01:21;;;;;;;7.63;5.70;;;;;;;;;;4990589;28;20198;-54
2022/10/13 04:03:47;;;;;;;6.97;6.17;;;;;;;;;;4989295;28;20207;-54
2022/10/13 04:06:14;;;;;;;8.37;7.53;;;;;;;;;;4979715;28;20568;-53
2022/10/13 04:08:40;;;;;;;7.43;6.07;;;;;;;;;;4991064;28;20579;-54
2022/10/13 04:11:14;;;;;;;6.80;6.10;;;;;;;;;;4969931;28;20191;-54
2022/10/13 04:13:41;;;;;;;6.40;5.83;;;;;;;;;;5005590;28;20688;-53
2022/10/13 04:16:09;;;;;;;8.47;6.00;;;;;;;;;;4989293;28;20186;-56
2022/10/13 04:18:41;;;;;;;7.67;5.90;;;;;;;;;;4985520;28;20285;-54
2022/10/13 04:21:09;;;;;;;9.30;6.33;;;;;;;;;;4971790;28;20253;-54
2022/10/13 04:23:35;;;;;;;6.50;5.90;;;;;;;;;;4987731;28;20209;-54
2022/10/13 04:26:01;;;;;;;8.00;6.90;;;;;;;;;;4969454;28;20221;-54
2022/10/13 04:28:28;;;;;;;6.90;6.20;;;;;;;;;;4968880;28;20157;-55
2022/10/13 04:30:54;;;;;;;6.50;5.40;;;;;;;;;;4979147;28;20650;-54
2022/10/13 04:33:20;;;;;;;7.50;6.80;;;;;;;;;;4990567;28;20649;-54
2022/10/13 04:35:46;;;;;;;6.60;5.93;;;;;;;;;;4969372;28;20269;-54
2022/10/13 04:38:12;;;;;;;7.43;5.57;;;;;;;;;;5006050;28;20676;-54
2022/10/13 04:40:38;;;;;;;7.13;6.43;;;;;;;;;;4973087;28;20267;-54
2022/10/13 04:43:04;;;;;;;6.30;5.50;;;;;;;;;;4987498;28;20173;-54
2022/10/13 04:45:30;;;;;;;6.87;6.00;;;;;;;;;;4987745;28;20203;-54
2022/10/13 04:47:57;;;;;;;6.60;5.93;;;;;;;;;;5003988;28;20174;-54
2022/10/13 04:50:23;;;;;;;7.37;6.47;;;;;;;;;;4988619;28;20245;-54
2022/10/13 04:52:49;;;;;;;8.77;6.27;;;;;;;;;;4986235;28;20312;-55
2022/10/13 04:55:15;;;;;;;7.23;6.53;;;;;;;;;;4969718;28;20651;-54
2022/10/13 04:57:41;;;;;;;7.27;6.13;;;;;;;;;;5002234;28;20668;-54
2022/10/13 05:00:08;;;;;;;7.03;6.13;;;;;;;;;;4985742;28;20235;-57
2022/10/13 05:02:36;;;;;;;7.70;6.10;;;;;;;;;;4974690;28;20183;-54
2022/10/13 05:05:02;;;;;;;7.70;6.10;;;;;;;;;;4986579;28;20195;-54
2022/10/13 05:07:29;;;;;;;7.63;5.87;;;;;;;;;;4967016;28;20176;-54
2022/10/13 05:09:55;;;;;;;8.30;5.77;;;;;;;;;;4996523;28;20188;-54
2022/10/13 05:12:22;;;;;;;6.77;6.07;;;;;;;;;;4974349;28;20190;-54
2022/10/13 05:14:48;;;;;;;6.40;5.80;;;;;;;;;;4988019;28;20213;-53
2022/10/13 05:17:14;;;;;;;7.27;6.17;;;;;;;;;;4983065;28;20218;-54
2022/10/13 05:19:40;;;;;;;6.77;5.80;;;;;;;;;;4998894;28;20321;-54
2022/10/13 05:22:06;;;;;;;7.60;5.93;;;;;;;;;;4993173;28;20257;-55
2022/10/13 05:24:35;;;;;;;6.70;6.00;;;;;;;;;;4972517;28;20203;-54
2022/10/13 05:27:06;;;;;;;8.33;6.30;;;;;;;;;;4992374;28;20195;-55
2022/10/13 05:29:32;;;;;;;8.23;5.60;;;;;;;;;;4991878;28;20194;-54
2022/10/13 05:31:58;;;;;;;8.23;6.30;;;;;;;;;;4991728;28;20589;-52
2022/10/13 05:34:25;;;;;;;6.77;6.10;;;;;;;;;;4988331;28;20187;-53
2022/10/13 05:36:51;;;;;;;6.57;5.63;;;;;;;;;;4998414;28;20550;-55
2022/10/13 05:39:18;;;;;;;6.47;5.87;;;;;;;;;;4972774;28;20273;-54
2022/10/13 05:41:45;;;;;;;8.07;6.40;;;;;;;;;;4977957;28;20190;-55
2022/10/13 05:44:12;;;;;;;8.80;6.37;;;;;;;;;;4972684;28;20340;-54
2022/10/13 05:46:38;;;;;;;7.57;5.70;;;;;;;;;;4995941;28;20193;-54
2022/10/13 05:49:04;;;;;;;6.53;5.87;;;;;;;;;;4991504;28;20523;-54
2022/10/13 05:51:32;;;;;;;7.37;6.17;;;;;;;;;;4991564;28;20727;-55
2022/10/13 05:54:02;;;;;;;7.20;6.17;;;;;;;;;;4986328;28;20205;-55
2022/10/13 05:56:32;;;;;;;7.03;6.33;;;;;;;;;;4995101;28;20179;-55
2022/10/13 05:59:02;;;;;;;7.73;6.93;;;;;;;;;;4994798;28;20238;-55
2022/10/13 06:01:30;;;;;;;8.07;5.17;;;;;;;;;;4975952;28;20629;-55
2022/10/13 06:03:59;;;;;;;8.10;6.10;;;;;;;;;;4983664;28;20253;-55
2022/10/13 06:06:25;;;;;;;6.67;5.63;;;;;;;;;;4989971;28;20516;-54
2022/10/13 06:08:52;;;;;;;6.90;6.07;;;;;;;;;;4988209;28;20277;-54
2022/10/13 06:11:18;;;;;;;7.17;6.00;;;;;;;;;;4989484;28;20187;-54
2022/10/13 06:13:44;;;;;;;7.27;5.60;;;;;;;;;;4990091;28;20191;-54
2022/10/13 06:16:10;;;;;;;8.60;6.00;;;;;;;;;;4971640;28;20187;-54
2022/10/13 06:18:36;;;;;;;7.20;5.93;;;;;;;;;;4966980;28;20604;-55
2022/10/13 06:21:03;;;;;;;7.27;6.53;;;;;;;;;;4988951;28;20278;-54
2022/10/13 06:23:29;;;;;;;9.10;5.87;;;;;;;;;;4977726;28;20191;-54
2022/10/13 06:25:56;;;;;;;7.83;6.37;;;;;;;;;;4990296;28;20191;-55
2022/10/13 06:28:22;;;;;;;7.63;6.60;;;;;;;;;;4970320;28;20192;-55
2022/10/13 06:30:53;;;;;;;7.03;6.13;;;;;;;;;;4971853;28;20183;-54
2022/10/13 06:33:19;;;;;;;6.77;6.07;;;;;;;;;;4989312;28;20270;-54
2022/10/13 06:35:45;;;;;;;7.17;6.47;;;;;;;;;;4987387;28;20227;-55
2022/10/13 06:38:11;;;;;;;8.20;6.70;;;;;;;;;;4988037;28;20179;-55
2022/10/13 06:40:38;;;;;;;10.60;7.17;;;;;;;;;;4988595;28;20269;-54
2022/10/13 06:43:04;;;;;;;9.90;6.87;;;;;;;;;;4989026;28;20190;-54
2022/10/13 06:45:30;;;;;;;7.03;6.20;;;;;;;;;;4988797;28;20209;-54
2022/10/13 06:47:56;;;;;;;7.67;6.23;;;;;;;;;;4971196;28;20190;-55
2022/10/13 06:50:23;;;;;;;7.57;6.77;;;;;;;;;;4952179;28;20200;-55
2022/10/13 06:52:49;;;;;;;7.23;6.43;;;;;;;;;;4996085;28;20222;-54
2022/10/13 06:55:15;;;;;;;7.90;6.10;;;;;;;;;;4988867;28;20732;-54
2022/10/13 06:57:42;;;;;;;7.07;6.00;;;;;;;;;;4988265;28;20183;-55
2022/10/13 07:00:08;;;;;;;11.00;6.17;;;;;;;;;;4975503;28;20239;-55
2022/10/13 07:02:34;;;;;;;6.47;5.80;;;;;;;;;;4951136;28;20191;-53
2022/10/13 07:05:01;;;;;;;6.90;6.27;;;;;;;;;;4969499;28;20218;-55
2022/10/13 07:07:27;;;;;;;8.37;5.73;;;;;;;;;;4953141;28;20611;-55
2022/10/13 07:09:53;;;;;;;6.93;6.23;;;;;;;;;;4970034;28;20192;-55
2022/10/13 07:12:20;;;;;;;6.97;6.13;;;;;;;;;;4970069;28;20565;-55
2022/10/13 07:14:47;;;;;;;6.83;6.13;;;;;;;;;;4989673;28;20159;-55
2022/10/13 07:17:13;;;;;;;7.53;6.10;;;;;;;;;;4968875;28;20246;-55
2022/10/13 07:19:39;;;;;;;6.00;5.43;;;;;;;;;;4967351;28;20239;-55
2022/10/13 07:22:05;;;;;;;6.37;5.53;;;;;;;;;;4952158;28;20188;-54
2022/10/13 07:24:34;;;;;;;9.27;6.37;;;;;;;;;;4941059;29;20204;-53
2022/10/13 07:27:01;;;;;;;7.07;5.93;;;;;;;;;;4951890;28;20662;-54
2022/10/13 07:29:27;;;;;;;9.60;6.00;;;;;;;;;;4969439;28;20207;-54
2022/10/13 07:31:53;;;;;;;6.90;6.20;;;;;;;;;;4968922;28;20267;-53
2022/10/13 07:34:19;;;;;;;6.70;6.00;;;;;;;;;;4953430;28;20207;-54
2022/10/13 07:36:45;;;;;;;7.17;6.17;;;;;;;;;;4948320;28;20176;-54
2022/10/13 07:39:12;;;;;;;7.13;6.13;;;;;;;;;;4969316;28;20171;-54
2022/10/13 07:41:38;;;;;;;6.40;5.77;;;;;;;;;;4956716;28;20180;-54
2022/10/13 07:44:04;;;;;;;7.13;6.43;;;;;;;;;;4968618;28;20204;-53
2022/10/13 07:46:30;;;;;;;7.13;6.30;;;;;;;;;;4968635;28;20299;-54
2022/10/13 07:48:57;;;;;;;7.93;6.83;;;;;;;;;;4935960;28;20215;-54
2022/10/13 07:51:23;;;;;;;6.83;5.97;;;;;;;;;;4966330;28;20734;-54
2022/10/13 07:53:49;;;;;;;11.53;6.17;;;;;;;;;;4964815;28;21952;-54
2022/10/13 07:56:16;;;;;;;7.23;6.30;;;;;;;;;;4968428;28;20310;-54
2022/10/13 07:58:44;;;;;;;6.97;6.27;;;;;;;;;;4973849;28;20679;-55
2022/10/13 08:01:10;;;;;;;8.17;5.90;;;;;;;;;;4957527;28;20630;-54
2022/10/13 08:03:36;;;;;;;7.87;7.07;;;;;;;;;;4981815;28;20209;-53
2022/10/13 08:06:04;;;;;;;5.87;5.30;;;;;;;;;;4987166;28;20183;-54
2022/10/13 08:08:31;;;;;;;8.50;7.20;;;;;;;;;;4963747;28;20191;-53
2022/10/13 08:11:11;;;;;;;7.13;6.43;;;;;;;;;;4988555;28;20549;-54
2022/10/13 08:13:38;;;;;;;8.53;6.53;;;;;;;;;;4988158;28;20171;-55
2022/10/13 08:16:04;;;;;;;7.53;6.50;;;;;;;;;;4988707;28;20182;-56
2022/10/13 08:18:30;;;;;;;10.30;6.60;;;;;;;;;;4988956;28;20656;-52
2022/10/13 08:21:00;;;;;;;7.47;6.67;;;;;;;;;;4986056;28;20167;-54
2022/10/13 08:23:26;;;;;;;7.33;6.13;;;;;;;;;;4971497;28;20716;-53
2022/10/13 08:25:53;;;;;;;7.33;6.60;;;;;;;;;;4956874;28;20255;-53
2022/10/13 08:28:24;;;;;;;8.03;6.77;;;;;;;;;;4988229;28;20187;-55
2022/10/13 08:30:52;;;;;;;9.20;7.87;;;;;;;;;;4988206;28;20239;-54
2022/10/13 08:33:19;;;;;;;8.93;7.87;;;;;;;;;;4982176;28;20179;-54
2022/10/13 08:35:45;;;;;;;9.93;7.40;;;;;;;;;;4984162;28;20467;-55
2022/10/13 08:38:11;;;;;;;8.87;6.90;;;;;;;;;;4988007;28;20184;-54
2022/10/13 08:40:38;;;;;;;10.40;7.17;;;;;;;;;;4983593;28;20274;-54
2022/10/13 08:43:08;;;;;;;7.80;6.97;;;;;;;;;;4986976;28;20183;-54
2022/10/13 08:45:34;;;;;;;9.13;6.53;;;;;;;;;;4985469;28;20242;-54
2022/10/13 08:48:03;;;;;;;11.00;7.90;;;;;;;;;;4982700;28;20217;-54
2022/10/13 08:50:31;;;;;;;9.30;6.80;;;;;;;;;;4985288;28;20672;-54
2022/10/13 08:53:16;;;;;;;9.37;6.73;;;;;;;;;;4973830;28;20198;-54
2022/10/13 08:55:43;;;;;;;8.07;7.27;;;;;;;;;;4989858;28;20608;-54
2022/10/13 08:58:17;;;;;;;8.97;6.90;;;;;;;;;;4992282;28;20171;-54
2022/10/13 09:00:47;;;;;;;8.13;7.10;;;;;;;;;;4974580;28;20219;-54
2022/10/13 09:03:21;;;;;;;9.03;7.87;;;;;;;;;;4970677;28;20733;-55
2022/10/13 09:06:06;;;;;;;8.90;7.93;;;;;;;;;;4970594;28;20198;-54
2022/10/13 09:08:37;;;;;;;8.53;7.23;;;;;;;;;;4971173;28;20258;-54
2022/10/13 09:11:11;;;;;;;9.20;7.37;;;;;;;;;;4970808;28;20183;-54
2022/10/13 09:13:37;;;;;;;10.27;7.63;;;;;;;;;;4944182;28;20179;-53
2022/10/13 09:16:03;;;;;;;12.30;7.83;;;;;;;;;;4972350;28;20230;-54
2022/10/13 09:18:30;;;;;;;9.20;7.33;;;;;;;;;;4970595;28;20198;-53
2022/10/13 09:21:15;;;;;;;8.33;7.47;;;;;;;;;;4977112;28;20614;-54
2022/10/13 09:23:41;;;;;;;9.23;7.13;;;;;;;;;;4963491;28;20623;-54
2022/10/13 09:26:08;;;;;;;8.33;7.17;;;;;;;;;;4954511;28;20706;-54
2022/10/13 09:28:34;;;;;;;9.20;7.83;;;;;;;;;;4970590;28;20545;-54
2022/10/13 09:31:05;;;;;;;11.80;7.63;;;;;;;;;;4972050;28;20744;-54
2022/10/13 09:33:36;;;;;;;11.80;7.77;;;;;;;;;;4969876;28;20195;-53
2022/10/13 09:36:02;;;;;;;9.43;7.37;;;;;;;;;;4971672;28;20188;-54
2022/10/13 09:38:28;;;;;;;9.07;7.70;;;;;;;;;;4972071;28;20167;-54
2022/10/13 09:40:58;;;;;;;8.93;7.93;;;;;;;;;;4963080;28;20242;-54
2022/10/13 09:43:29;;;;;;;9.83;7.33;;;;;;;;;;4951694;28;20180;-54
2022/10/13 09:45:56;;;;;;;8.13;7.33;;;;;;;;;;4970913;28;20219;-54
2022/10/13 09:48:26;;;;;;;10.87;7.27;;;;;;;;;;4977436;28;20239;-55
2022/10/13 09:50:53;;;;;;;8.93;7.40;;;;;;;;;;4969183;28;20239;-55
2022/10/13 09:53:19;;;;;;;13.07;7.27;;;;;;;;;;4971494;28;20188;-56
2022/10/13 09:55:47;;;;;;;7.97;7.17;;;;;;;;;;4970545;28;20244;-55
2022/10/13 09:58:24;;;;;;;7.93;6.90;;;;;;;;;;4972037;28;20182;-55
2022/10/13 10:00:51;;;;;;;11.43;6.83;;;;;;;;;;4970267;28;20227;-55
2022/10/13 10:03:17;;;;;;;9.90;7.77;;;;;;;;;;4992378;28;20202;-54
2022/10/13 10:05:54;;;;;;;13.97;6.83;;;;;;;;;;4990247;28;20218;-54
2022/10/13 10:08:45;;;;;;;7.53;6.70;;;;;;;;;;4995931;28;20209;-54
2022/10/13 10:11:23;;;;;;;10.27;7.27;;;;;;;;;;4993199;28;20620;-54
2022/10/13 10:13:51;;;;;;;8.20;6.83;;;;;;;;;;4989046;28;20664;-55
2022/10/13 10:16:17;;;;;;;10.47;6.90;;;;;;;;;;4991009;28;20258;-54
2022/10/13 10:18:43;;;;;;;7.97;7.07;;;;;;;;;;4992373;28;20575;-55
2022/10/13 10:21:25;;;;;;;7.83;6.37;;;;;;;;;;4990906;28;20633;-54
2022/10/13 10:23:53;;;;;;;9.43;6.97;;;;;;;;;;4989030;28;20694;-55
2022/10/13 10:26:26;;;;;;;7.87;7.03;;;;;;;;;;4989452;28;20257;-55
2022/10/13 10:29:10;;;;;;;8.40;6.63;;;;;;;;;;4991540;28;20225;-55
2022/10/13 10:31:56;;;;;;;8.10;6.90;;;;;;;;;;4990511;28;20226;-55
2022/10/13 10:34:22;;;;;;;8.17;6.97;;;;;;;;;;4967257;28;20712;-55
2022/10/13 10:36:52;;;;;;;8.70;7.03;;;;;;;;;;4984862;28;20650;-54
2022/10/13 10:39:23;;;;;;;9.00;6.57;;;;;;;;;;4988364;28;20271;-55
2022/10/13 10:41:53;;;;;;;7.93;7.00;;;;;;;;;;4989367;28;20191;-55
2022/10/13 10:44:30;;;;;;;8.43;7.33;;;;;;;;;;4980831;28;20216;-55
2022/10/13 10:47:01;;;;;;;10.80;7.57;;;;;;;;;;4982439;28;20486;-55
2022/10/13 10:49:32;;;;;;;7.63;6.87;;;;;;;;;;4987289;28;20256;-55
2022/10/13 10:51:59;;;;;;;7.13;6.43;;;;;;;;;;4983921;28;20666;-55
2022/10/13 10:54:30;;;;;;;7.80;6.17;;;;;;;;;;4987989;28;20183;-55
2022/10/13 10:57:00;;;;;;;7.97;6.97;;;;;;;;;;4989545;28;20222;-55
2022/10/13 10:59:45;;;;;;;8.80;6.40;;;;;;;;;;4989070;28;20310;-55
2022/10/13 11:02:17;;;;;;;10.33;7.27;;;;;;;;;;4982428;28;20175;-55
2022/10/13 11:04:47;;;;;;;7.07;6.33;;;;;;;;;;4978917;28;20203;-55
2022/10/13 11:07:22;;;;;;;8.53;6.60;;;;;;;;;;4992091;28;20175;-55
2022/10/13 11:09:51;;;;;;;7.37;6.53;;;;;;;;;;4985800;28;20511;-55
2022/10/13 11:12:20;;;;;;;7.73;6.67;;;;;;;;;;4994018;28;20187;-55
2022/10/13 11:14:46;;;;;;;11.40;7.37;;;;;;;;;;4972083;28;20191;-54
2022/10/13 11:17:17;;;;;;;10.63;7.27;;;;;;;;;;4988090;28;20273;-55
2022/10/13 11:19:43;;;;;;;7.40;6.60;;;;;;;;;;4989065;28;20199;-55
2022/10/13 11:22:12;;;;;;;9.73;6.40;;;;;;;;;;4987508;28;20179;-56
2022/10/13 11:24:41;;;;;;;7.23;6.53;;;;;;;;;;4989109;28;20609;-55
2022/10/13 11:27:07;;;;;;;8.20;6.40;;;;;;;;;;4996869;28;20187;-55
2022/10/13 11:29:50;;;;;;;8.00;6.80;;;;;;;;;;4989005;28;20602;-56
2022/10/13 11:35:00;;;;;;;7.70;6.17;;;;;;;;;;4986178;28;20183;-55
2022/10/13 11:37:33;;;;;;;10.23;7.07;;;;;;;;;;5000476;28;20217;-56
2022/10/13 11:40:03;;;;;;;9.38;8.10;;;;;;;;;;4989890;28;20435;-56
2022/10/13 11:42:43;;;;;;;8.83;6.83;;;;;;;;;;4988806;28;20183;-56
2022/10/13 11:45:16;;;;;;;7.20;6.50;;;;;;;;;;4989801;28;20741;-56
2022/10/13 11:47:42;;;;;;;8.00;6.23;;;;;;;;;;5002718;28;20240;-56
2022/10/13 11:50:14;;;;;;;9.57;6.97;;;;;;;;;;4994866;28;20192;-55
2022/10/13 11:52:48;;;;;;;9.03;6.63;;;;;;;;;;4988132;28;20669;-56
2022/10/13 11:55:17;;;;;;;7.03;6.03;;;;;;;;;;4988726;28;20190;-55
2022/10/13 11:57:44;;;;;;;7.77;6.20;;;;;;;;;;4991566;28;20642;-56
2022/10/13 12:00:14;;;;;;;6.43;5.83;;;;;;;;;;4989397;28;20230;-56
2022/10/13 12:02:47;;;;;;;11.20;6.33;;;;;;;;;;4988519;28;20183;-55
2022/10/13 12:05:20;;;;;;;6.70;6.00;;;;;;;;;;4988074;28;20591;-55
2022/10/13 12:07:47;;;;;;;6.50;5.83;;;;;;;;;;4971644;28;20179;-57
2022/10/13 12:10:19;;;;;;;7.73;6.27;;;;;;;;;;4989186;28;20628;-55
2022/10/13 12:12:46;;;;;;;7.50;6.80;;;;;;;;;;4991527;28;20190;-55
2022/10/13 12:15:30;;;;;;;6.80;5.97;;;;;;;;;;4989213;28;20183;-56
2022/10/13 12:17:56;;;;;;;7.57;5.93;;;;;;;;;;4995182;28;20195;-56
2022/10/13 12:20:24;;;;;;;8.37;6.60;;;;;;;;;;4987658;28;20186;-56
2022/10/13 12:22:51;;;;;;;10.77;5.60;;;;;;;;;;4984542;28;20650;-55
2022/10/13 12:25:18;;;;;;;6.53;5.57;;;;;;;;;;4988345;28;20207;-56
2022/10/13 12:27:52;;;;;;;7.43;5.93;;;;;;;;;;4985294;28;20703;-56
2022/10/13 12:30:24;;;;;;;6.20;4.83;;;;;;;;;;4987073;28;20179;-55
2022/10/13 12:32:52;;;;;;;6.20;5.60;;;;;;;;;;4988825;28;20171;-56
2022/10/13 12:35:23;;;;;;;7.67;5.63;;;;;;;;;;4988492;28;20159;-56
2022/10/13 12:37:50;;;;;;;5.80;4.83;;;;;;;;;;4995204;28;20265;-56
2022/10/13 12:40:17;;;;;;;5.87;5.33;;;;;;;;;;4986622;28;20368;-55
2022/10/13 12:42:43;;;;;;;6.70;4.87;;;;;;;;;;4972285;28;20187;-56
2022/10/13 12:45:17;;;;;;;8.93;5.10;;;;;;;;;;4988527;28;20195;-55
2022/10/13 12:47:48;;;;;;;5.53;4.97;;;;;;;;;;5002486;28;20633;-56
2022/10/13 12:50:21;;;;;;;5.37;4.87;;;;;;;;;;4988273;28;20667;-56
2022/10/13 12:52:47;;;;;;;4.97;4.43;;;;;;;;;;4985679;28;20650;-56
2022/10/13 12:55:16;;;;;;;5.37;4.87;;;;;;;;;;4988130;28;20183;-56
2022/10/13 12:57:44;;;;;;;7.67;5.30;;;;;;;;;;4988858;28;20183;-56
2022/10/13 13:00:19;;;;;;;6.63;4.97;;;;;;;;;;4980988;28;20777;-56
2022/10/13 13:03:05;;;;;;;8.13;5.23;;;;;;;;;;4972644;28;20653;-56
2022/10/13 13:05:39;;;;;;;5.27;4.77;;;;;;;;;;4966047;28;20725;-56
2022/10/13 13:08:21;;;;;;;8.13;4.43;;;;;;;;;;4968589;28;20183;-56
2022/10/13 13:10:54;;;;;;;5.33;4.67;;;;;;;;;;4951861;28;20528;-56
2022/10/13 13:13:21;;;;;;;5.27;4.77;;;;;;;;;;4962019;28;20270;-56
2022/10/13 13:15:47;;;;;;;6.80;4.87;;;;;;;;;;4968592;28;20196;-56
2022/10/13 13:18:30;;;;;;;5.17;4.67;;;;;;;;;;4968213;28;20179;-56
2022/10/13 13:20:57;;;;;;;6.23;5.07;;;;;;;;;;4971181;28;20613;-56
2022/10/13 13:23:25;;;;;;;5.43;4.40;;;;;;;;;;4967664;28;20188;-57
2022/10/13 13:26:02;;;;;;;4.60;4.10;;;;;;;;;;4965119;28;20714;-56
2022/10/13 13:28:29;;;;;;;4.83;4.13;;;;;;;;;;4969923;28;20655;-56
2022/10/13 13:30:55;;;;;;;6.17;4.67;;;;;;;;;;4969323;28;20247;-57
2022/10/13 13:33:21;;;;;;;5.63;4.87;;;;;;;;;;4963290;28;20643;-55
2022/10/13 13:35:47;;;;;;;7.80;4.70;;;;;;;;;;4972883;28;20188;-56
2022/10/13 13:38:14;;;;;;;5.10;3.90;;;;;;;;;;4968827;28;20176;-57
2022/10/13 13:40:40;;;;;;;5.30;4.63;;;;;;;;;;4971449;28;20243;-56
2022/10/13 13:43:07;;;;;;;4.97;4.47;;;;;;;;;;4970447;28;20172;-56
2022/10/13 13:45:34;;;;;;;9.53;4.47;;;;;;;;;;4972486;28;20278;-56
2022/10/13 13:48:00;;;;;;;6.30;4.10;;;;;;;;;;4971232;28;20184;-56
2022/10/13 13:50:27;;;;;;;4.10;3.70;;;;;;;;;;4970194;28;20239;-56
2022/10/13 13:52:53;;;;;;;5.27;4.03;;;;;;;;;;4971274;28;20179;-57
2022/10/13 13:55:19;;;;;;;5.47;3.70;;;;;;;;;;4973733;28;20238;-56
2022/10/13 13:57:45;;;;;;;4.40;3.70;;;;;;;;;;4973594;28;20184;-56
2022/10/13 14:00:12;;;;;;;4.50;4.10;;;;;;;;;;4978038;28;20242;-56
2022/10/13 14:02:38;;;;;;;4.43;3.60;;;;;;;;;;4997911;28;20301;-57
2022/10/13 14:05:06;;;;;;;4.70;4.30;;;;;;;;;;4986462;28;20307;-56
2022/10/13 14:07:32;;;;;;;4.77;4.27;;;;;;;;;;4987279;28;20191;-56
2022/10/13 14:09:58;;;;;;;4.40;4.00;;;;;;;;;;4991345;28;20606;-56
2022/10/13 14:12:24;;;;;;;5.27;4.20;;;;;;;;;;4995195;28;20206;-56
2022/10/13 14:14:50;;;;;;;5.40;4.37;;;;;;;;;;4990367;28;20179;-56
2022/10/13 14:17:16;;;;;;;3.93;3.63;;;;;;;;;;4989429;28;20550;-56
2022/10/13 14:19:43;;;;;;;4.60;4.20;;;;;;;;;;4977036;28;20191;-57
2022/10/13 14:22:09;;;;;;;5.13;4.63;;;;;;;;;;4990359;28;20187;-57
2022/10/13 14:24:35;;;;;;;5.60;4.37;;;;;;;;;;4989882;28;20207;-57
2022/10/13 14:27:01;;;;;;;4.70;4.30;;;;;;;;;;4982241;28;20171;-57
2022/10/13 14:29:27;;;;;;;6.27;4.47;;;;;;;;;;5007432;28;20581;-57
2022/10/13 14:31:53;;;;;;;4.60;4.20;;;;;;;;;;4996260;28;20198;-58
2022/10/13 14:34:19;;;;;;;4.90;4.40;;;;;;;;;;4983194;28;20175;-57
2022/10/13 14:36:46;;;;;;;4.83;4.37;;;;;;;;;;4996688;28;20186;-57
2022/10/13 14:39:12;;;;;;;4.67;4.23;;;;;;;;;;4977815;28;20592;-57
2022/10/13 14:41:38;;;;;;;6.27;4.07;;;;;;;;;;4989158;28;20182;-57
2022/10/13 14:44:04;;;;;;;5.47;4.43;;;;;;;;;;4989396;28;20233;-58
2022/10/13 14:46:30;;;;;;;5.43;4.60;;;;;;;;;;4987230;28;20703;-57
2022/10/13 14:49:03;;;;;;;6.33;4.10;;;;;;;;;;4989175;28;20182;-58
2022/10/13 14:51:31;;;;;;;5.33;4.20;;;;;;;;;;4987208;28;20202;-57
2022/10/13 14:53:57;;;;;;;10.10;5.70;;;;;;;;;;4987554;28;20191;-57